sensor_id;sensor_type;location;lat;lon;timestamp;P1;durP1;ratioP1;P2;durP2;ratioP2
52868;SDS011;39100;53.480;6.158;2022-10-14T00:01:19;0.70;;;0.50;;
52868;SDS011;39100;53.480;6.158;2022-10-14T00:03:46;0.70;;;0.55;;
52868;SDS011;39100;53.480;6.158;2022-10-14T00:06:17;1.30;;;0.70;;
52868;SDS011;39100;53.480;6.158;2022-10-14T00:11:17;1.05;;;0.73;;
52868;SDS011;39100;53.480;6.158;2022-10-14T00:13:45;1.10;;;0.80;;
52868;SDS011;39100;53.480;6.158;2022-10-14T00:16:15;0.85;;;0.50;;
52868;SDS011;39100;53.480;6.158;2022-10-14T00:18:43;1.27;;;0.63;;
52868;SDS011;39100;53.480;6.158;2022-10-14T00:21:10;0.82;;;0.60;;
52868;SDS011;39100;53.480;6.158;2022-10-14T00:23:35;2.20;;;0.90;;
52868;SDS011;39100;53.480;6.158;2022-10-14T00:26:01;0.60;;;0.50;;
52868;SDS011;39100;53.480;6.158;2022-10-14T00:28:26;0.52;;;0.45;;
52868;SDS011;39100;53.480;6.158;2022-10-14T00:30:53;0.80;;;0.73;;
52868;SDS011;39100;53.480;6.158;2022-10-14T00:33:22;0.85;;;0.70;;
52868;SDS011;39100;53.480;6.158;2022-10-14T00:35:53;0.50;;;0.50;;
52868;SDS011;39100;53.480;6.158;2022-10-14T00:38:22;1.65;;;0.73;;
52868;SDS011;39100;53.480;6.158;2022-10-14T00:40:48;0.65;;;0.60;;
52868;SDS011;39100;53.480;6.158;2022-10-14T00:43:14;0.73;;;0.60;;
52868;SDS011;39100;53.480;6.158;2022-10-14T00:45:40;1.95;;;0.60;;
52868;SDS011;39100;53.480;6.158;2022-10-14T00:48:06;0.70;;;0.68;;
52868;SDS011;39100;53.480;6.158;2022-10-14T00:50:33;1.85;;;0.68;;
52868;SDS011;39100;53.480;6.158;2022-10-14T00:52:59;1.10;;;0.50;;
52868;SDS011;39100;53.480;6.158;2022-10-14T00:55:25;0.73;;;0.65;;
52868;SDS011;39100;53.480;6.158;2022-10-14T00:57:51;0.52;;;0.45;;
52868;SDS011;39100;53.480;6.158;2022-10-14T01:00:17;0.70;;;0.63;;
52868;SDS011;39100;53.480;6.158;2022-10-14T01:02:44;1.05;;;0.90;;
52868;SDS011;39100;53.480;6.158;2022-10-14T01:05:12;0.90;;;0.70;;
52868;SDS011;39100;53.480;6.158;2022-10-14T01:07:44;1.27;;;1.00;;
52868;SDS011;39100;53.480;6.158;2022-10-14T01:10:18;0.93;;;0.63;;
52868;SDS011;39100;53.480;6.158;2022-10-14T01:18:35;1.13;;;1.00;;
52868;SDS011;39100;53.480;6.158;2022-10-14T01:21:10;0.70;;;0.60;;
52868;SDS011;39100;53.480;6.158;2022-10-14T01:26:20;0.93;;;0.82;;
52868;SDS011;39100;53.480;6.158;2022-10-14T01:29:16;0.95;;;0.70;;
52868;SDS011;39100;53.480;6.158;2022-10-14T01:32:13;0.50;;;0.43;;
52868;SDS011;39100;53.480;6.158;2022-10-14T01:34:42;0.90;;;0.63;;
52868;SDS011;39100;53.480;6.158;2022-10-14T01:37:16;0.80;;;0.80;;
52868;SDS011;39100;53.480;6.158;2022-10-14T01:39:46;1.13;;;0.50;;
52868;SDS011;39100;53.480;6.158;2022-10-14T01:42:24;0.63;;;0.63;;
52868;SDS011;39100;53.480;6.158;2022-10-14T01:44:53;0.50;;;0.47;;
52868;SDS011;39100;53.480;6.158;2022-10-14T01:47:22;0.65;;;0.50;;
52868;SDS011;39100;53.480;6.158;2022-10-14T01:49:56;0.55;;;0.40;;
52868;SDS011;39100;53.480;6.158;2022-10-14T01:52:32;0.85;;;0.60;;
52868;SDS011;39100;53.480;6.158;2022-10-14T01:55:02;0.60;;;0.50;;
52868;SDS011;39100;53.480;6.158;2022-10-14T01:57:32;0.45;;;0.40;;
52868;SDS011;39100;53.480;6.158;2022-10-14T02:00:02;0.30;;;0.30;;
52868;SDS011;39100;53.480;6.158;2022-10-14T02:02:28;0.55;;;0.52;;
52868;SDS011;39100;53.480;6.158;2022-10-14T02:04:54;0.43;;;0.43;;
52868;SDS011;39100;53.480;6.158;2022-10-14T02:07:24;0.50;;;0.50;;
52868;SDS011;39100;53.480;6.158;2022-10-14T02:12:44;0.82;;;0.73;;
52868;SDS011;39100;53.480;6.158;2022-10-14T02:15:34;0.75;;;0.75;;
52868;SDS011;39100;53.480;6.158;2022-10-14T02:18:12;0.52;;;0.50;;
52868;SDS011;39100;53.480;6.158;2022-10-14T02:21:02;0.60;;;0.60;;
52868;SDS011;39100;53.480;6.158;2022-10-14T02:23:34;0.80;;;0.73;;
52868;SDS011;39100;53.480;6.158;2022-10-14T02:26:05;0.60;;;0.50;;
52868;SDS011;39100;53.480;6.158;2022-10-14T02:28:33;0.80;;;0.80;;
52868;SDS011;39100;53.480;6.158;2022-10-14T02:31:01;1.05;;;0.85;;
52868;SDS011;39100;53.480;6.158;2022-10-14T02:33:35;0.73;;;0.60;;
52868;SDS011;39100;53.480;6.158;2022-10-14T02:36:03;0.90;;;0.68;;
52868;SDS011;39100;53.480;6.158;2022-10-14T02:38:31;1.10;;;0.95;;
52868;SDS011;39100;53.480;6.158;2022-10-14T02:40:59;1.40;;;1.08;;
52868;SDS011;39100;53.480;6.158;2022-10-14T02:43:27;1.58;;;1.48;;
52868;SDS011;39100;53.480;6.158;2022-10-14T02:45:55;1.38;;;1.27;;
52868;SDS011;39100;53.480;6.158;2022-10-14T02:48:22;1.77;;;1.48;;
52868;SDS011;39100;53.480;6.158;2022-10-14T02:50:48;1.77;;;1.50;;
52868;SDS011;39100;53.480;6.158;2022-10-14T02:53:13;1.75;;;1.33;;
52868;SDS011;39100;53.480;6.158;2022-10-14T02:55:40;1.65;;;1.38;;
52868;SDS011;39100;53.480;6.158;2022-10-14T02:58:06;1.88;;;1.70;;
52868;SDS011;39100;53.480;6.158;2022-10-14T03:00:32;1.38;;;1.27;;
52868;SDS011;39100;53.480;6.158;2022-10-14T03:02:58;1.60;;;1.40;;
52868;SDS011;39100;53.480;6.158;2022-10-14T03:05:24;1.90;;;1.55;;
52868;SDS011;39100;53.480;6.158;2022-10-14T03:07:49;1.77;;;1.10;;
52868;SDS011;39100;53.480;6.158;2022-10-14T03:10:15;1.40;;;1.17;;
52868;SDS011;39100;53.480;6.158;2022-10-14T03:12:41;1.30;;;1.08;;
52868;SDS011;39100;53.480;6.158;2022-10-14T03:15:07;0.90;;;0.90;;
52868;SDS011;39100;53.480;6.158;2022-10-14T03:17:33;0.63;;;0.63;;
52868;SDS011;39100;53.480;6.158;2022-10-14T03:19:58;0.77;;;0.70;;
52868;SDS011;39100;53.480;6.158;2022-10-14T03:22:24;0.35;;;0.35;;
52868;SDS011;39100;53.480;6.158;2022-10-14T03:24:50;0.47;;;0.38;;
52868;SDS011;39100;53.480;6.158;2022-10-14T03:27:16;0.32;;;0.32;;
52868;SDS011;39100;53.480;6.158;2022-10-14T03:29:41;0.20;;;0.20;;
52868;SDS011;39100;53.480;6.158;2022-10-14T03:32:07;0.63;;;0.20;;
52868;SDS011;39100;53.480;6.158;2022-10-14T03:34:32;0.30;;;0.30;;
52868;SDS011;39100;53.480;6.158;2022-10-14T03:36:58;0.50;;;0.28;;
52868;SDS011;39100;53.480;6.158;2022-10-14T03:39:23;0.43;;;0.43;;
52868;SDS011;39100;53.480;6.158;2022-10-14T03:41:49;0.30;;;0.30;;
52868;SDS011;39100;53.480;6.158;2022-10-14T03:44:15;0.60;;;0.60;;
52868;SDS011;39100;53.480;6.158;2022-10-14T03:46:40;0.50;;;0.50;;
52868;SDS011;39100;53.480;6.158;2022-10-14T03:49:06;0.35;;;0.32;;
52868;SDS011;39100;53.480;6.158;2022-10-14T03:51:31;0.85;;;0.45;;
52868;SDS011;39100;53.480;6.158;2022-10-14T03:53:57;0.43;;;0.43;;
52868;SDS011;39100;53.480;6.158;2022-10-14T03:56:23;0.60;;;0.60;;
52868;SDS011;39100;53.480;6.158;2022-10-14T03:58:48;0.55;;;0.55;;
52868;SDS011;39100;53.480;6.158;2022-10-14T04:01:14;0.88;;;0.60;;
52868;SDS011;39100;53.480;6.158;2022-10-14T04:03:39;0.50;;;0.30;;
52868;SDS011;39100;53.480;6.158;2022-10-14T04:06:05;0.50;;;0.50;;
52868;SDS011;39100;53.480;6.158;2022-10-14T04:08:31;0.50;;;0.50;;
52868;SDS011;39100;53.480;6.158;2022-10-14T04:10:56;0.30;;;0.30;;
52868;SDS011;39100;53.480;6.158;2022-10-14T04:13:22;0.52;;;0.50;;
52868;SDS011;39100;53.480;6.158;2022-10-14T04:15:48;0.60;;;0.60;;
52868;SDS011;39100;53.480;6.158;2022-10-14T04:18:14;0.30;;;0.30;;
52868;SDS011;39100;53.480;6.158;2022-10-14T04:20:40;0.85;;;0.47;;
52868;SDS011;39100;53.480;6.158;2022-10-14T04:23:05;0.50;;;0.50;;
52868;SDS011;39100;53.480;6.158;2022-10-14T04:25:31;0.50;;;0.40;;
52868;SDS011;39100;53.480;6.158;2022-10-14T04:27:57;0.50;;;0.50;;
52868;SDS011;39100;53.480;6.158;2022-10-14T04:30:22;0.70;;;0.52;;
52868;SDS011;39100;53.480;6.158;2022-10-14T04:32:48;0.60;;;0.52;;
52868;SDS011;39100;53.480;6.158;2022-10-14T04:35:13;0.40;;;0.40;;
52868;SDS011;39100;53.480;6.158;2022-10-14T04:37:39;0.55;;;0.55;;
52868;SDS011;39100;53.480;6.158;2022-10-14T04:40:05;0.50;;;0.50;;
52868;SDS011;39100;53.480;6.158;2022-10-14T04:42:30;1.10;;;0.68;;
52868;SDS011;39100;53.480;6.158;2022-10-14T04:44:56;0.82;;;0.50;;
52868;SDS011;39100;53.480;6.158;2022-10-14T04:47:22;0.85;;;0.73;;
52868;SDS011;39100;53.480;6.158;2022-10-14T04:49:48;1.25;;;1.02;;
52868;SDS011;39100;53.480;6.158;2022-10-14T04:52:14;1.42;;;0.90;;
52868;SDS011;39100;53.480;6.158;2022-10-14T04:54:39;1.77;;;1.00;;
52868;SDS011;39100;53.480;6.158;2022-10-14T04:57:05;1.98;;;1.20;;
52868;SDS011;39100;53.480;6.158;2022-10-14T04:59:31;2.00;;;1.33;;
52868;SDS011;39100;53.480;6.158;2022-10-14T05:01:58;0.80;;;0.70;;
52868;SDS011;39100;53.480;6.158;2022-10-14T05:04:23;0.80;;;0.40;;
52868;SDS011;39100;53.480;6.158;2022-10-14T05:06:49;1.10;;;0.60;;
52868;SDS011;39100;53.480;6.158;2022-10-14T05:09:15;0.52;;;0.43;;
52868;SDS011;39100;53.480;6.158;2022-10-14T05:11:40;0.63;;;0.52;;
52868;SDS011;39100;53.480;6.158;2022-10-14T05:14:06;0.57;;;0.57;;
52868;SDS011;39100;53.480;6.158;2022-10-14T05:16:32;0.40;;;0.40;;
52868;SDS011;39100;53.480;6.158;2022-10-14T05:18:57;0.82;;;0.50;;
52868;SDS011;39100;53.480;6.158;2022-10-14T05:21:23;0.50;;;0.50;;
52868;SDS011;39100;53.480;6.158;2022-10-14T05:23:48;0.57;;;0.40;;
52868;SDS011;39100;53.480;6.158;2022-10-14T05:26:14;0.93;;;0.50;;
52868;SDS011;39100;53.480;6.158;2022-10-14T05:28:40;0.75;;;0.50;;
52868;SDS011;39100;53.480;6.158;2022-10-14T05:31:05;0.63;;;0.63;;
52868;SDS011;39100;53.480;6.158;2022-10-14T05:33:31;0.73;;;0.73;;
52868;SDS011;39100;53.480;6.158;2022-10-14T05:35:57;0.70;;;0.50;;
52868;SDS011;39100;53.480;6.158;2022-10-14T05:38:23;0.60;;;0.45;;
52868;SDS011;39100;53.480;6.158;2022-10-14T05:40:55;0.70;;;0.60;;
52868;SDS011;39100;53.480;6.158;2022-10-14T05:43:22;0.55;;;0.52;;
52868;SDS011;39100;53.480;6.158;2022-10-14T05:45:51;0.93;;;0.70;;
52868;SDS011;39100;53.480;6.158;2022-10-14T05:48:17;1.17;;;0.93;;
52868;SDS011;39100;53.480;6.158;2022-10-14T05:50:43;0.95;;;0.80;;
52868;SDS011;39100;53.480;6.158;2022-10-14T05:53:09;0.50;;;0.50;;
52868;SDS011;39100;53.480;6.158;2022-10-14T05:55:35;0.60;;;0.50;;
52868;SDS011;39100;53.480;6.158;2022-10-14T05:58:01;2.25;;;0.68;;
52868;SDS011;39100;53.480;6.158;2022-10-14T06:00:28;0.40;;;0.40;;
52868;SDS011;39100;53.480;6.158;2022-10-14T06:02:57;0.40;;;0.30;;
52868;SDS011;39100;53.480;6.158;2022-10-14T06:05:22;0.30;;;0.30;;
52868;SDS011;39100;53.480;6.158;2022-10-14T06:07:48;0.50;;;0.50;;
52868;SDS011;39100;53.480;6.158;2022-10-14T06:10:14;1.08;;;0.70;;
52868;SDS011;39100;53.480;6.158;2022-10-14T06:12:40;0.93;;;0.70;;
52868;SDS011;39100;53.480;6.158;2022-10-14T06:15:06;0.80;;;0.70;;
52868;SDS011;39100;53.480;6.158;2022-10-14T06:17:32;0.90;;;0.70;;
52868;SDS011;39100;53.480;6.158;2022-10-14T06:19:57;0.77;;;0.68;;
52868;SDS011;39100;53.480;6.158;2022-10-14T06:22:23;1.52;;;0.50;;
52868;SDS011;39100;53.480;6.158;2022-10-14T06:24:49;0.70;;;0.70;;
52868;SDS011;39100;53.480;6.158;2022-10-14T06:27:14;1.52;;;1.25;;
52868;SDS011;39100;53.480;6.158;2022-10-14T06:29:40;1.00;;;0.90;;
52868;SDS011;39100;53.480;6.158;2022-10-14T06:32:06;1.27;;;1.10;;
52868;SDS011;39100;53.480;6.158;2022-10-14T06:34:32;0.77;;;0.68;;
52868;SDS011;39100;53.480;6.158;2022-10-14T06:36:58;0.98;;;0.85;;
52868;SDS011;39100;53.480;6.158;2022-10-14T06:39:24;1.00;;;0.77;;
52868;SDS011;39100;53.480;6.158;2022-10-14T06:41:50;0.80;;;0.80;;
52868;SDS011;39100;53.480;6.158;2022-10-14T06:44:15;1.10;;;1.00;;
52868;SDS011;39100;53.480;6.158;2022-10-14T06:46:41;0.82;;;0.80;;
52868;SDS011;39100;53.480;6.158;2022-10-14T06:49:07;1.23;;;0.93;;
52868;SDS011;39100;53.480;6.158;2022-10-14T06:51:33;1.35;;;1.02;;
52868;SDS011;39100;53.480;6.158;2022-10-14T06:53:59;2.10;;;1.20;;
52868;SDS011;39100;53.480;6.158;2022-10-14T06:56:24;1.80;;;1.20;;
52868;SDS011;39100;53.480;6.158;2022-10-14T06:58:54;1.83;;;1.25;;
52868;SDS011;39100;53.480;6.158;2022-10-14T07:01:19;2.67;;;1.67;;
52868;SDS011;39100;53.480;6.158;2022-10-14T07:03:46;2.60;;;1.60;;
52868;SDS011;39100;53.480;6.158;2022-10-14T07:06:11;2.00;;;1.15;;
52868;SDS011;39100;53.480;6.158;2022-10-14T07:08:37;2.30;;;1.50;;
52868;SDS011;39100;53.480;6.158;2022-10-14T07:11:03;3.20;;;1.58;;
52868;SDS011;39100;53.480;6.158;2022-10-14T07:13:30;2.60;;;1.58;;
52868;SDS011;39100;53.480;6.158;2022-10-14T07:15:58;2.88;;;1.60;;
52868;SDS011;39100;53.480;6.158;2022-10-14T07:18:23;3.40;;;1.73;;
52868;SDS011;39100;53.480;6.158;2022-10-14T07:20:49;3.22;;;1.77;;
52868;SDS011;39100;53.480;6.158;2022-10-14T07:23:15;2.55;;;1.80;;
52868;SDS011;39100;53.480;6.158;2022-10-14T07:25:40;4.10;;;2.13;;
52868;SDS011;39100;53.480;6.158;2022-10-14T07:28:06;3.65;;;2.03;;
52868;SDS011;39100;53.480;6.158;2022-10-14T07:30:32;3.75;;;1.83;;
52868;SDS011;39100;53.480;6.158;2022-10-14T07:32:58;3.25;;;1.80;;
52868;SDS011;39100;53.480;6.158;2022-10-14T07:35:24;4.55;;;2.60;;
52868;SDS011;39100;53.480;6.158;2022-10-14T07:37:51;3.95;;;2.05;;
52868;SDS011;39100;53.480;6.158;2022-10-14T07:40:17;3.72;;;2.40;;
52868;SDS011;39100;53.480;6.158;2022-10-14T07:42:43;3.72;;;2.13;;
52868;SDS011;39100;53.480;6.158;2022-10-14T07:45:09;3.47;;;2.03;;
52868;SDS011;39100;53.480;6.158;2022-10-14T07:47:40;5.45;;;2.95;;
52868;SDS011;39100;53.480;6.158;2022-10-14T07:50:07;3.60;;;2.47;;
52868;SDS011;39100;53.480;6.158;2022-10-14T07:52:34;4.80;;;2.70;;
52868;SDS011;39100;53.480;6.158;2022-10-14T07:55:00;4.90;;;2.92;;
52868;SDS011;39100;53.480;6.158;2022-10-14T07:57:26;4.30;;;2.75;;
52868;SDS011;39100;53.480;6.158;2022-10-14T07:59:52;4.85;;;3.00;;
52868;SDS011;39100;53.480;6.158;2022-10-14T08:02:18;5.85;;;2.80;;
52868;SDS011;39100;53.480;6.158;2022-10-14T08:04:44;5.95;;;3.20;;
52868;SDS011;39100;53.480;6.158;2022-10-14T08:07:10;3.75;;;2.58;;
52868;SDS011;39100;53.480;6.158;2022-10-14T08:09:38;4.20;;;2.70;;
52868;SDS011;39100;53.480;6.158;2022-10-14T08:12:04;4.05;;;2.55;;
52868;SDS011;39100;53.480;6.158;2022-10-14T08:14:30;4.82;;;2.53;;
52868;SDS011;39100;53.480;6.158;2022-10-14T08:16:56;4.05;;;2.80;;
52868;SDS011;39100;53.480;6.158;2022-10-14T08:19:21;4.50;;;3.00;;
52868;SDS011;39100;53.480;6.158;2022-10-14T08:21:47;3.63;;;2.45;;
52868;SDS011;39100;53.480;6.158;2022-10-14T08:24:12;3.85;;;2.30;;
52868;SDS011;39100;53.480;6.158;2022-10-14T08:26:52;4.47;;;2.58;;
52868;SDS011;39100;53.480;6.158;2022-10-14T08:29:23;4.38;;;2.75;;
52868;SDS011;39100;53.480;6.158;2022-10-14T08:31:49;3.78;;;2.30;;
52868;SDS011;39100;53.480;6.158;2022-10-14T08:34:16;4.20;;;2.45;;
52868;SDS011;39100;53.480;6.158;2022-10-14T08:36:45;3.70;;;2.50;;
52868;SDS011;39100;53.480;6.158;2022-10-14T08:39:12;4.18;;;2.40;;
52868;SDS011;39100;53.480;6.158;2022-10-14T08:44:31;3.47;;;2.30;;
52868;SDS011;39100;53.480;6.158;2022-10-14T08:47:13;3.67;;;2.28;;
52868;SDS011;39100;53.480;6.158;2022-10-14T08:52:33;4.95;;;3.72;;
52868;SDS011;39100;53.480;6.158;2022-10-14T08:55:13;4.35;;;2.45;;
52868;SDS011;39100;53.480;6.158;2022-10-14T08:58:09;3.20;;;2.30;;
52868;SDS011;39100;53.480;6.158;2022-10-14T09:00:36;3.95;;;2.40;;
52868;SDS011;39100;53.480;6.158;2022-10-14T09:03:09;5.03;;;2.90;;
52868;SDS011;39100;53.480;6.158;2022-10-14T09:05:40;5.38;;;3.40;;
52868;SDS011;39100;53.480;6.158;2022-10-14T09:08:06;4.07;;;2.70;;
52868;SDS011;39100;53.480;6.158;2022-10-14T09:10:39;6.22;;;3.28;;
52868;SDS011;39100;53.480;6.158;2022-10-14T09:13:14;5.20;;;3.15;;
52868;SDS011;39100;53.480;6.158;2022-10-14T09:15:49;5.97;;;3.10;;
52868;SDS011;39100;53.480;6.158;2022-10-14T09:18:27;4.95;;;3.42;;
52868;SDS011;39100;53.480;6.158;2022-10-14T09:20:58;5.72;;;3.40;;
52868;SDS011;39100;53.480;6.158;2022-10-14T09:23:26;5.25;;;3.42;;
52868;SDS011;39100;53.480;6.158;2022-10-14T09:25:58;5.70;;;3.20;;
52868;SDS011;39100;53.480;6.158;2022-10-14T09:28:34;4.20;;;2.55;;
52868;SDS011;39100;53.480;6.158;2022-10-14T09:31:03;4.40;;;2.05;;
52868;SDS011;39100;53.480;6.158;2022-10-14T09:33:30;6.22;;;3.08;;
52868;SDS011;39100;53.480;6.158;2022-10-14T09:35:58;5.00;;;2.97;;
52868;SDS011;39100;53.480;6.158;2022-10-14T09:38:24;5.57;;;2.83;;
52868;SDS011;39100;53.480;6.158;2022-10-14T09:40:54;8.52;;;4.43;;
52868;SDS011;39100;53.480;6.158;2022-10-14T09:43:22;6.38;;;3.65;;
52868;SDS011;39100;53.480;6.158;2022-10-14T09:45:55;8.35;;;3.90;;
52868;SDS011;39100;53.480;6.158;2022-10-14T09:48:42;7.10;;;3.60;;
52868;SDS011;39100;53.480;6.158;2022-10-14T09:51:27;7.55;;;3.60;;
52868;SDS011;39100;53.480;6.158;2022-10-14T09:54:02;7.13;;;3.50;;
52868;SDS011;39100;53.480;6.158;2022-10-14T09:56:32;8.02;;;3.97;;
52868;SDS011;39100;53.480;6.158;2022-10-14T09:59:00;7.65;;;3.67;;
52868;SDS011;39100;53.480;6.158;2022-10-14T10:01:28;8.88;;;4.30;;
52868;SDS011;39100;53.480;6.158;2022-10-14T10:06:52;6.47;;;3.45;;
52868;SDS011;39100;53.480;6.158;2022-10-14T10:09:18;8.50;;;3.90;;
52868;SDS011;39100;53.480;6.158;2022-10-14T10:11:45;6.47;;;3.97;;
52868;SDS011;39100;53.480;6.158;2022-10-14T10:14:32;6.57;;;3.22;;
52868;SDS011;39100;53.480;6.158;2022-10-14T10:19:39;8.43;;;4.22;;
52868;SDS011;39100;53.480;6.158;2022-10-14T10:24:50;7.22;;;4.13;;
52868;SDS011;39100;53.480;6.158;2022-10-14T10:27:37;8.50;;;5.05;;
52868;SDS011;39100;53.480;6.158;2022-10-14T10:30:20;7.82;;;4.65;;
52868;SDS011;39100;53.480;6.158;2022-10-14T10:38:55;7.57;;;3.83;;
52868;SDS011;39100;53.480;6.158;2022-10-14T10:44:54;8.73;;;4.32;;
52868;SDS011;39100;53.480;6.158;2022-10-14T10:47:31;9.60;;;4.72;;
52868;SDS011;39100;53.480;6.158;2022-10-14T10:58:25;7.85;;;4.50;;
52868;SDS011;39100;53.480;6.158;2022-10-14T11:06:39;10.30;;;5.65;;
52868;SDS011;39100;53.480;6.158;2022-10-14T11:09:40;8.60;;;4.80;;
52868;SDS011;39100;53.480;6.158;2022-10-14T11:15:21;8.85;;;5.07;;
52868;SDS011;39100;53.480;6.158;2022-10-14T11:20:35;7.32;;;4.68;;
52868;SDS011;39100;53.480;6.158;2022-10-14T11:26:27;9.82;;;5.60;;
52868;SDS011;39100;53.480;6.158;2022-10-14T11:34:54;8.43;;;4.30;;
52868;SDS011;39100;53.480;6.158;2022-10-14T11:37:42;8.85;;;5.07;;
52868;SDS011;39100;53.480;6.158;2022-10-14T11:40:22;7.13;;;4.00;;
52868;SDS011;39100;53.480;6.158;2022-10-14T11:42:56;7.75;;;4.45;;
52868;SDS011;39100;53.480;6.158;2022-10-14T11:48:03;7.10;;;4.05;;
52868;SDS011;39100;53.480;6.158;2022-10-14T11:50:54;7.43;;;4.15;;
52868;SDS011;39100;53.480;6.158;2022-10-14T11:53:38;7.65;;;4.15;;
52868;SDS011;39100;53.480;6.158;2022-10-14T11:56:25;9.05;;;4.55;;
52868;SDS011;39100;53.480;6.158;2022-10-14T11:58:58;7.57;;;3.65;;
52868;SDS011;39100;53.480;6.158;2022-10-14T12:01:27;8.77;;;4.63;;
52868;SDS011;39100;53.480;6.158;2022-10-14T12:04:02;7.82;;;4.30;;
52868;SDS011;39100;53.480;6.158;2022-10-14T12:06:36;6.38;;;3.65;;
52868;SDS011;39100;53.480;6.158;2022-10-14T12:09:25;4.75;;;3.13;;
52868;SDS011;39100;53.480;6.158;2022-10-14T12:12:07;5.88;;;3.50;;
52868;SDS011;39100;53.480;6.158;2022-10-14T12:14:46;6.75;;;4.32;;
52868;SDS011;39100;53.480;6.158;2022-10-14T12:17:28;5.53;;;3.22;;
52868;SDS011;39100;53.480;6.158;2022-10-14T12:23:10;4.72;;;3.20;;
52868;SDS011;39100;53.480;6.158;2022-10-14T12:25:47;3.75;;;2.53;;
52868;SDS011;39100;53.480;6.158;2022-10-14T12:28:20;4.95;;;2.83;;
52868;SDS011;39100;53.480;6.158;2022-10-14T12:30:46;3.97;;;2.50;;
52868;SDS011;39100;53.480;6.158;2022-10-14T12:33:13;2.67;;;2.17;;
52868;SDS011;39100;53.480;6.158;2022-10-14T12:38:16;3.83;;;2.35;;
52868;SDS011;39100;53.480;6.158;2022-10-14T12:40:42;3.50;;;2.10;;
52868;SDS011;39100;53.480;6.158;2022-10-14T12:45:46;2.80;;;1.73;;
52868;SDS011;39100;53.480;6.158;2022-10-14T12:48:30;4.27;;;2.07;;
52868;SDS011;39100;53.480;6.158;2022-10-14T12:51:06;1.83;;;1.30;;
52868;SDS011;39100;53.480;6.158;2022-10-14T12:53:39;2.00;;;1.42;;
52868;SDS011;39100;53.480;6.158;2022-10-14T12:56:26;2.10;;;0.98;;
52868;SDS011;39100;53.480;6.158;2022-10-14T12:58:59;1.58;;;1.25;;
52868;SDS011;39100;53.480;6.158;2022-10-14T13:01:27;3.25;;;1.30;;
52868;SDS011;39100;53.480;6.158;2022-10-14T13:03:55;2.35;;;1.38;;
52868;SDS011;39100;53.480;6.158;2022-10-14T13:11:38;1.48;;;0.95;;
52868;SDS011;39100;53.480;6.158;2022-10-14T13:21:57;0.85;;;0.77;;
52868;SDS011;39100;53.480;6.158;2022-10-14T13:24:28;1.52;;;1.02;;
52868;SDS011;39100;53.480;6.158;2022-10-14T13:32:18;1.25;;;0.95;;
52868;SDS011;39100;53.480;6.158;2022-10-14T13:39:56;1.02;;;0.60;;
52868;SDS011;39100;53.480;6.158;2022-10-14T13:42:30;1.38;;;1.08;;
52868;SDS011;39100;53.480;6.158;2022-10-14T13:45:04;1.80;;;1.00;;
52868;SDS011;39100;53.480;6.158;2022-10-14T13:47:34;1.70;;;1.17;;
52868;SDS011;39100;53.480;6.158;2022-10-14T13:50:00;2.38;;;0.82;;
52868;SDS011;39100;53.480;6.158;2022-10-14T13:52:28;0.95;;;0.82;;
52868;SDS011;39100;53.480;6.158;2022-10-14T13:55:04;1.05;;;0.57;;
52868;SDS011;39100;53.480;6.158;2022-10-14T13:57:40;2.03;;;1.05;;
52868;SDS011;39100;53.480;6.158;2022-10-14T14:00:49;1.13;;;0.50;;
52868;SDS011;39100;53.480;6.158;2022-10-14T14:03:00;0.90;;;0.70;;
52868;SDS011;39100;53.480;6.158;2022-10-14T14:05:34;1.00;;;0.60;;
52868;SDS011;39100;53.480;6.158;2022-10-14T14:08:01;1.38;;;0.80;;
52868;SDS011;39100;53.480;6.158;2022-10-14T14:10:28;1.65;;;1.00;;
52868;SDS011;39100;53.480;6.158;2022-10-14T14:12:54;2.47;;;1.00;;
52868;SDS011;39100;53.480;6.158;2022-10-14T14:15:24;2.35;;;1.45;;
52868;SDS011;39100;53.480;6.158;2022-10-14T14:17:51;0.75;;;0.70;;
52868;SDS011;39100;53.480;6.158;2022-10-14T14:20:18;1.38;;;0.93;;
52868;SDS011;39100;53.480;6.158;2022-10-14T14:22:46;1.73;;;1.00;;
52868;SDS011;39100;53.480;6.158;2022-10-14T14:27:50;0.90;;;0.70;;
52868;SDS011;39100;53.480;6.158;2022-10-14T14:30:18;2.22;;;1.05;;
52868;SDS011;39100;53.480;6.158;2022-10-14T14:32:51;1.48;;;1.00;;
52868;SDS011;39100;53.480;6.158;2022-10-14T14:35:17;0.95;;;0.65;;
52868;SDS011;39100;53.480;6.158;2022-10-14T14:37:43;1.98;;;1.02;;
52868;SDS011;39100;53.480;6.158;2022-10-14T14:40:14;0.98;;;0.82;;
52868;SDS011;39100;53.480;6.158;2022-10-14T14:42:40;2.72;;;1.20;;
52868;SDS011;39100;53.480;6.158;2022-10-14T14:47:36;1.45;;;0.98;;
52868;SDS011;39100;53.480;6.158;2022-10-14T14:50:03;2.33;;;1.17;;
52868;SDS011;39100;53.480;6.158;2022-10-14T14:52:30;0.98;;;0.70;;
52868;SDS011;39100;53.480;6.158;2022-10-14T14:54:56;1.35;;;0.80;;
52868;SDS011;39100;53.480;6.158;2022-10-14T14:57:21;1.17;;;0.70;;
52868;SDS011;39100;53.480;6.158;2022-10-14T15:00:17;1.65;;;1.38;;
52868;SDS011;39100;53.480;6.158;2022-10-14T15:02:42;0.98;;;0.88;;
52868;SDS011;39100;53.480;6.158;2022-10-14T15:05:09;1.25;;;0.80;;
52868;SDS011;39100;53.480;6.158;2022-10-14T15:07:35;1.10;;;0.73;;
52868;SDS011;39100;53.480;6.158;2022-10-14T15:10:02;0.98;;;0.55;;
52868;SDS011;39100;53.480;6.158;2022-10-14T15:12:31;0.60;;;0.60;;
52868;SDS011;39100;53.480;6.158;2022-10-14T15:15:21;0.82;;;0.70;;
52868;SDS011;39100;53.480;6.158;2022-10-14T15:18:18;1.35;;;1.05;;
52868;SDS011;39100;53.480;6.158;2022-10-14T15:20:45;1.08;;;0.75;;
52868;SDS011;39100;53.480;6.158;2022-10-14T15:26:01;0.70;;;0.70;;
52868;SDS011;39100;53.480;6.158;2022-10-14T15:28:30;0.85;;;0.73;;
52868;SDS011;39100;53.480;6.158;2022-10-14T15:30:56;0.90;;;0.63;;
52868;SDS011;39100;53.480;6.158;2022-10-14T15:33:25;1.17;;;0.80;;
52868;SDS011;39100;53.480;6.158;2022-10-14T15:35:55;1.15;;;0.70;;
52868;SDS011;39100;53.480;6.158;2022-10-14T15:38:22;0.93;;;0.60;;
52868;SDS011;39100;53.480;6.158;2022-10-14T15:40:49;1.42;;;1.02;;
52868;SDS011;39100;53.480;6.158;2022-10-14T15:43:16;1.10;;;1.00;;
52868;SDS011;39100;53.480;6.158;2022-10-14T15:45:49;2.03;;;1.25;;
52868;SDS011;39100;53.480;6.158;2022-10-14T15:48:35;1.73;;;1.15;;
52868;SDS011;39100;53.480;6.158;2022-10-14T15:51:02;1.20;;;0.88;;
52868;SDS011;39100;53.480;6.158;2022-10-14T15:53:28;1.77;;;0.90;;
52868;SDS011;39100;53.480;6.158;2022-10-14T15:55:54;1.58;;;1.20;;
52868;SDS011;39100;53.480;6.158;2022-10-14T15:58:19;2.05;;;1.60;;
52868;SDS011;39100;53.480;6.158;2022-10-14T16:00:45;2.00;;;1.35;;
52868;SDS011;39100;53.480;6.158;2022-10-14T16:03:11;1.17;;;0.90;;
52868;SDS011;39100;53.480;6.158;2022-10-14T16:05:37;1.33;;;1.08;;
52868;SDS011;39100;53.480;6.158;2022-10-14T16:08:04;1.17;;;0.90;;
52868;SDS011;39100;53.480;6.158;2022-10-14T16:10:38;1.60;;;1.20;;
52868;SDS011;39100;53.480;6.158;2022-10-14T16:13:03;1.58;;;1.27;;
52868;SDS011;39100;53.480;6.158;2022-10-14T16:15:32;1.42;;;1.13;;
52868;SDS011;39100;53.480;6.158;2022-10-14T16:18:06;1.77;;;1.33;;
52868;SDS011;39100;53.480;6.158;2022-10-14T16:20:31;0.95;;;0.90;;
52868;SDS011;39100;53.480;6.158;2022-10-14T16:22:57;1.58;;;1.13;;
52868;SDS011;39100;53.480;6.158;2022-10-14T16:25:31;1.27;;;1.02;;
52868;SDS011;39100;53.480;6.158;2022-10-14T16:28:00;1.95;;;1.20;;
52868;SDS011;39100;53.480;6.158;2022-10-14T16:30:28;1.17;;;0.95;;
52868;SDS011;39100;53.480;6.158;2022-10-14T16:32:53;1.15;;;0.98;;
52868;SDS011;39100;53.480;6.158;2022-10-14T16:35:19;1.30;;;1.02;;
52868;SDS011;39100;53.480;6.158;2022-10-14T16:37:44;1.85;;;1.33;;
52868;SDS011;39100;53.480;6.158;2022-10-14T16:40:10;1.92;;;1.30;;
52868;SDS011;39100;53.480;6.158;2022-10-14T16:42:36;1.05;;;0.95;;
52868;SDS011;39100;53.480;6.158;2022-10-14T16:45:03;1.60;;;1.10;;
52868;SDS011;39100;53.480;6.158;2022-10-14T16:47:29;1.45;;;1.10;;
52868;SDS011;39100;53.480;6.158;2022-10-14T16:49:55;1.15;;;0.95;;